Brooklyn, WI (53521)

7:45 PM CST on February 13, 2016 (GMT -0600)
KWIOREGO2 | | Change Station
CLOSE
Current Station
Personal Weather Station
Location: Oregon, WI
Elevation: 974 ft
Nearby Weather Stations
Active Advisory: Winter Weather Advisory

Elev 974 ft 42.92 °N, 89.39 °W | Updated 29 seconds ago

Partly Cloudy
Partly Cloudy
6.5 °F
Feels Like 6 °F
N
0.0
Wind Variable Wind from WNW
Gusts 0.0 mph

Today
High -- | Low -- °F
--% Chance of Precip.
Yesterday
High -- | Low -- °F
Precip. -- in
Pressure 30.46 in
Visibility 10.0 miles
Clouds Clear
Windchill 6 °F
Dew Point -7 °F
Humidity 53%
Rainfall 0.00 in
Snow Depth Not available.
6:58 AM 5:25 PM
Waxing Crescent, 36% visible
METAR KC29 140135Z AUTO 00000KT 10SM CLR M16/M20 A3046 RMK AO1 T11581200
Pressure 30.46 in
Visibility 10.0 miles
Clouds Clear
Windchill 6 °F
Dew Point -7 °F
Humidity 53%
Rainfall 0.00 in
Snow Depth Not available.
6:58 AM 5:25 PM
Waxing Crescent, 36% visible
METAR KC29 140135Z AUTO 00000KT 10SM CLR M16/M20 A3046 RMK AO1 T11581200

10-Day Weather Forecast

Almanac

Astronomy

Feb. 13, 2016 Rise Set
Actual Time
Civil Twilight
Nautical Twilight
Astronomical Twilight
Moon
Length of Visible Light
Length of Day
Tomorrow will be .
, % of the Moon is Illuminated

Today's Extremes

State Highs State Lows

Community

WunderPhotos

Upload Photos

1,892,722 photos uploaded!

WunderBlog® & News

Nearby

Air Quality

  Air Quality AQ Index Pollutant
Not available.

Snow Depth

Station Depth Elevation

Earthquake Activity

City Distance Mag. Time & Date
Minimum magnitude displayed is 2.5.

Coastal Water Temperatures

Place Temperature

Stations

Nearby Weather Stations

Station Location Temp. Windchill Dew Point Humidity Wind Precip. Elev Updated Type
                   

Watches & Warnings

Winter Weather Advisory
Issued: 2:06 PM CST Feb. 13, 2016 – National Weather Service

... Winter Weather Advisory in effect from 6 am to 9 PM CST
Sunday...

The National Weather Service in Milwaukee/Sullivan has issued a
Winter Weather Advisory for snow... which is in effect from 6 am
to 9 PM CST Sunday.

* Timing... snow will start early to mid morning Sunday and
continue into Sunday evening.

* Snow accumulations... 3 to 4 inches.

* Winds... southeast 10 to 15 mph.

* Impacts... snow accumulation on untreated roads or surfaces will
create difficult travel conditions Sunday into Sunday evening.

A Winter Weather Advisory for snow means that periods of snow
will cause primarily travel difficulties. Be prepared for snow
covered roads and limited visibilities... and use caution while
driving.


Collar